Pagrindinis puslapis
METAR-TAF:

METAR-TAF

Oro uostai :

Kopenhaga, Danija

platuma: 55-37N, ilguma: 012-39E, Aukštis: 5 m

Dabartinis oras

Ataskaita buvo paskelbta 32 minutes, ne 03:20 UTC
Vėjas 3 kt iš Pietvakarių
Temperatūra 13°C
Drėgmė 88%
Slėgis 1011 hPa
Matomumas 10 km arba daugiau

METAR: EKCH 220320Z AUTO 23003KT 9999 FEW017/// BKN049/// 13/11 Q1011 NOSIG

Laikas: 05:52 (03:52 UTC)

Prognozė

Ataskaita buvo paskelbta 4 valandos ir 34 minutes, ne 23:18 UTC
Prognozė galioja nuo 22 metu 00 UTC su 22 metu 24 UTC
Vėjas 8 kt iš Vakarų/Šiaurės Vakarų
Matomumas 10 km arba daugiau
Išsisklaidę debesys ne aukštis 3000 ft

TAF: EKCH 212318Z 2200/2224 30008KT 9999 SCT030

Orai ataskaitas ir orų prognozės (METAR, TAF).

turimą stotys yra geltonos ir raudonos taškus žemėlapyje.

Perkelti pele per norėdami pamatyti stoties vardą.

Tada spustelėkite, norėdami matyti oro stebėjimo ir prognozės.

Norėdami pakeisti žemėlapį: spustelėkite ant žalios mygtukų su juodo kryžiaus žemyn,; žalią mygtuką su brūkšneliu, jei norite nutolinti; arba žalių rodyklių gretimoms žemėlapius.


METAR-TAF: